createdAt,value
2019-01-14T00:01:29.587Z,101171.12
2019-01-14T00:03:59.664Z,101176.48
2019-01-14T00:06:29.434Z,101178.80
2019-01-14T00:08:58.777Z,101186.16
2019-01-14T00:11:28.290Z,101183.70
2019-01-14T00:13:57.895Z,101193.01
2019-01-14T00:16:27.705Z,101203.53
2019-01-14T00:18:57.927Z,101206.75
2019-01-14T00:21:27.428Z,101202.38
2019-01-14T00:23:57.238Z,101208.52
2019-01-14T00:26:27.492Z,101213.27
2019-01-14T00:28:57.100Z,101217.92
2019-01-14T00:31:26.414Z,101224.45
2019-01-14T00:33:55.900Z,101218.95
2019-01-14T00:36:25.379Z,101230.82
2019-01-14T00:38:55.082Z,101229.84
2019-01-14T00:41:24.625Z,101234.03
2019-01-14T00:43:54.308Z,101229.11
2019-01-14T00:46:24.296Z,101233.63
2019-01-14T00:48:54.068Z,101241.08
2019-01-14T00:51:23.837Z,101244.93
2019-01-14T00:53:53.760Z,101249.36
2019-01-14T00:56:33.316Z,101244.23
2019-01-14T00:59:03.128Z,101256.72
2019-01-14T01:01:32.921Z,101255.04
2019-01-14T01:04:02.219Z,101255.13
2019-01-14T01:06:32.340Z,101262.58
2019-01-14T01:09:02.165Z,101261.73
2019-01-14T01:11:31.683Z,101257.97
2019-01-14T01:14:01.898Z,101263.76
2019-01-14T01:16:31.587Z,101267.20
2019-01-14T01:21:40.453Z,101279.09
2019-01-14T01:24:10.836Z,101283.14
2019-01-14T01:26:40.174Z,101295.92
2019-01-14T01:29:09.969Z,101299.80
2019-01-14T01:31:40.228Z,101303.98
2019-01-14T01:34:10.011Z,101307.52
2019-01-14T01:36:39.889Z,101317.98
2019-01-14T01:39:09.181Z,101320.17
2019-01-14T01:41:38.946Z,101318.84
2019-01-14T01:44:08.640Z,101323.78
2019-01-14T01:46:37.735Z,101334.48
2019-01-14T01:49:07.129Z,101331.61
2019-01-14T01:51:37.041Z,101327.70
2019-01-14T01:54:06.853Z,101346.58
2019-01-14T01:56:36.882Z,101342.58
2019-01-14T01:59:07.172Z,101338.59
2019-01-14T02:01:36.947Z,101340.20
2019-01-14T02:04:07.011Z,101346.77
2019-01-14T02:06:39.201Z,101350.36
2019-01-14T02:09:06.673Z,101354.41
2019-01-14T02:11:36.686Z,101356.15
2019-01-14T02:14:06.593Z,101358.48
2019-01-14T02:16:36.289Z,101367.52
2019-01-14T02:19:06.005Z,101374.25
2019-01-14T02:21:35.473Z,101367.95
2019-01-14T02:24:05.316Z,101376.13
2019-01-14T02:26:35.802Z,101383.01
2019-01-14T02:29:05.342Z,101378.94
2019-01-14T02:31:35.146Z,101385.25
2019-01-14T02:34:04.895Z,101393.13
2019-01-14T02:36:35.258Z,101390.86
2019-01-14T02:39:04.992Z,101385.61
2019-01-14T02:41:34.910Z,101389.00
2019-01-14T02:44:04.752Z,101392.63
2019-01-14T02:46:34.370Z,101401.99
2019-01-14T02:49:04.355Z,101401.28
2019-01-14T02:51:34.184Z,101398.33
2019-01-14T02:54:04.088Z,101404.63
2019-01-14T02:56:33.565Z,101412.27
2019-01-14T02:59:03.075Z,101421.39
2019-01-14T03:01:32.886Z,101426.75
2019-01-14T03:04:02.615Z,101435.45
2019-01-14T03:06:32.086Z,101436.73
2019-01-14T03:09:01.417Z,101431.11
2019-01-14T03:11:30.613Z,101445.35
2019-01-14T03:14:00.926Z,101447.99
2019-01-14T03:16:30.447Z,101447.40
2019-01-14T03:19:00.261Z,101451.38
2019-01-14T03:21:34.711Z,101459.95
2019-01-14T03:24:08.069Z,101463.31
2019-01-14T03:26:38.122Z,101456.15
2019-01-14T03:29:08.172Z,101463.65
2019-01-14T03:31:39.350Z,101455.02
2019-01-14T03:34:09.435Z,101451.50
2019-01-14T03:40:24.931Z,101465.11
2019-01-14T03:42:54.746Z,101468.85
2019-01-14T03:45:25.110Z,101467.98
2019-01-14T03:47:54.729Z,101464.83
2019-01-14T03:50:24.304Z,101464.89
2019-01-14T03:52:54.467Z,101462.75
2019-01-14T03:55:24.046Z,101459.83
2019-01-14T03:57:53.670Z,101452.50
2019-01-14T04:00:23.590Z,101453.51
2019-01-14T04:02:52.896Z,101458.69
2019-01-14T04:05:22.690Z,101470.23
2019-01-14T04:07:52.293Z,101476.20
2019-01-14T04:10:21.888Z,101477.71
2019-01-14T04:12:51.605Z,101481.36
2019-01-14T04:15:21.179Z,101480.81
2019-01-14T04:17:50.673Z,101483.25
2019-01-14T04:28:35.129Z,101483.30
2019-01-14T04:31:15.905Z,101483.39
2019-01-14T04:33:48.715Z,101487.53
2019-01-14T04:36:19.467Z,101479.59
2019-01-14T04:38:49.524Z,101472.39
2019-01-14T04:41:19.186Z,101466.14
2019-01-14T04:43:50.605Z,101459.41
2019-01-14T04:46:20.609Z,101459.44
2019-01-14T04:51:57.428Z,101463.16
2019-01-14T04:54:38.378Z,101457.03
2019-01-14T05:03:01.235Z,101455.05
2019-01-14T05:10:52.175Z,101442.23
2019-01-14T05:13:21.800Z,101439.58
2019-01-14T05:15:51.099Z,101436.23
2019-01-14T05:18:20.677Z,101438.06
2019-01-14T05:20:50.393Z,101430.87
2019-01-14T05:23:20.129Z,101430.88
2019-01-14T05:25:50.029Z,101431.73
2019-01-14T05:28:19.656Z,101428.69
2019-01-14T05:30:49.170Z,101421.48
2019-01-14T05:33:18.661Z,101414.48
2019-01-14T05:35:48.447Z,101414.84
2019-01-14T05:38:19.218Z,101406.36
2019-01-14T05:40:49.357Z,101398.86
2019-01-14T05:43:19.542Z,101403.37
2019-01-14T05:45:49.189Z,101403.27
2019-01-14T05:48:19.386Z,101404.51
2019-01-14T05:50:49.202Z,101401.13
2019-01-14T05:53:21.473Z,101399.48
2019-01-14T05:55:51.533Z,101393.92
2019-01-14T05:58:21.385Z,101395.01
2019-01-14T06:00:51.182Z,101390.83
2019-01-14T06:03:20.801Z,101385.92
2019-01-14T06:05:50.667Z,101377.89
2019-01-14T06:16:13.463Z,101352.43
2019-01-14T06:21:23.097Z,101344.53
2019-01-14T06:23:53.141Z,101347.98
2019-01-14T06:26:23.530Z,101347.16
2019-01-14T06:28:53.234Z,101337.70
2019-01-14T06:31:23.665Z,101332.23
2019-01-14T06:33:53.591Z,101331.27
2019-01-14T06:36:23.483Z,101319.04
2019-01-14T06:38:53.102Z,101316.84
2019-01-14T06:41:22.692Z,101312.05
2019-01-14T06:43:52.731Z,101307.48
2019-01-14T06:46:22.530Z,101307.42
2019-01-14T06:48:52.682Z,101301.56
2019-01-14T06:51:22.847Z,101297.11
2019-01-14T06:53:52.591Z,101288.11
2019-01-14T06:56:22.712Z,101285.89
2019-01-14T06:58:52.722Z,101270.11
2019-01-14T07:01:22.659Z,101270.97
2019-01-14T07:03:52.486Z,101271.81
2019-01-14T07:06:22.499Z,101268.45
2019-01-14T07:08:52.516Z,101260.23
2019-01-14T07:11:22.515Z,101260.59
2019-01-14T07:13:52.742Z,101261.06
2019-01-14T07:16:22.985Z,101253.84
2019-01-14T07:18:52.616Z,101254.59
2019-01-14T07:21:22.270Z,101240.78
2019-01-14T07:23:52.459Z,101238.92
2019-01-14T07:26:22.414Z,101231.16
2019-01-14T07:28:52.416Z,101231.97
2019-01-14T07:31:22.272Z,101225.49
2019-01-14T07:33:51.977Z,101231.32
2019-01-14T07:36:21.151Z,101216.91
2019-01-14T07:38:54.989Z,101212.99
2019-01-14T07:41:24.451Z,101216.18
2019-01-14T07:43:54.160Z,101217.41
2019-01-14T07:46:23.917Z,101208.00
2019-01-14T07:48:53.597Z,101201.22
2019-01-14T07:51:23.589Z,101200.23
2019-01-14T07:53:53.348Z,101195.38
2019-01-14T07:56:23.385Z,101188.12
2019-01-14T07:58:52.939Z,101193.72
2019-01-14T08:01:22.738Z,101183.86
2019-01-14T08:03:52.546Z,101185.91
2019-01-14T08:06:22.146Z,101180.03
2019-01-14T08:08:52.168Z,101181.02
2019-01-14T08:11:21.566Z,101183.69
2019-01-14T08:13:51.610Z,101185.13
2019-01-14T08:16:22.111Z,101172.66
2019-01-14T08:18:52.491Z,101177.86
2019-01-14T08:21:22.356Z,101179.00
2019-01-14T08:23:51.744Z,101162.75
2019-01-14T08:26:21.140Z,101162.63
2019-01-14T08:28:50.751Z,101157.02
2019-01-14T08:31:20.342Z,101149.80
2019-01-14T08:33:49.747Z,101146.44
2019-01-14T08:36:19.380Z,101142.43
2019-01-14T08:38:49.115Z,101137.58
2019-01-14T08:41:19.091Z,101138.00
2019-01-14T08:43:48.852Z,101132.24
2019-01-14T08:46:18.300Z,101131.39
2019-01-14T08:48:53.897Z,101129.70
2019-01-14T08:51:23.995Z,101132.42
2019-01-14T08:53:55.266Z,101131.86
2019-01-14T08:56:24.950Z,101136.48
2019-01-14T08:58:55.176Z,101135.63
2019-01-14T09:01:25.285Z,101133.33
2019-01-14T09:03:55.735Z,101133.78
2019-01-14T09:06:25.981Z,101132.45
2019-01-14T09:08:55.762Z,101134.42
2019-01-14T09:11:26.113Z,101126.15
2019-01-14T09:13:55.952Z,101141.04
2019-01-14T09:16:25.997Z,101132.62
2019-01-14T09:18:56.102Z,101132.11
2019-01-14T09:21:25.835Z,101128.56
2019-01-14T09:23:55.752Z,101122.84
2019-01-14T09:26:25.706Z,101123.37
2019-01-14T09:28:56.087Z,101119.04
2019-01-14T09:31:25.891Z,101117.84
2019-01-14T09:33:55.603Z,101120.98
2019-01-14T09:36:25.663Z,101118.22
2019-01-14T09:38:55.026Z,101120.73
2019-01-14T09:41:24.612Z,101120.24
2019-01-14T09:43:54.876Z,101115.69
2019-01-14T09:46:24.762Z,101118.35
2019-01-14T09:48:55.530Z,101123.88
2019-01-14T09:51:26.118Z,101110.89
2019-01-14T09:53:56.160Z,101123.66
2019-01-14T09:56:25.953Z,101120.04
2019-01-14T09:58:55.904Z,101114.51
2019-01-14T10:01:26.501Z,101121.19
2019-01-14T10:03:56.556Z,101113.70
2019-01-14T10:06:26.244Z,101108.30
2019-01-14T10:08:56.486Z,101113.12
2019-01-14T10:11:26.086Z,101108.16
2019-01-14T10:13:56.085Z,101109.50
2019-01-14T10:16:26.121Z,101111.67
2019-01-14T10:18:56.145Z,101100.25
2019-01-14T10:21:26.429Z,101096.45
2019-01-14T10:23:56.282Z,101093.53
2019-01-14T10:26:26.053Z,101094.22
2019-01-14T10:28:55.974Z,101098.25
2019-01-14T10:31:25.162Z,101097.91
2019-01-14T10:33:55.438Z,101093.97
2019-01-14T10:36:25.407Z,101101.09
2019-01-14T10:38:55.072Z,101096.13
2019-01-14T10:41:25.160Z,101096.14
2019-01-14T10:43:55.236Z,101098.13
2019-01-14T10:46:24.588Z,101098.30
2019-01-14T10:48:54.871Z,101100.26
2019-01-14T10:51:24.276Z,101095.39
2019-01-14T10:53:54.186Z,101096.68
2019-01-14T10:56:23.903Z,101097.30
2019-01-14T10:58:54.108Z,101099.10
2019-01-14T11:01:24.284Z,101100.05
2019-01-14T11:03:54.061Z,101092.52
2019-01-14T11:06:24.022Z,101095.77
2019-01-14T11:08:57.571Z,101097.40
2019-01-14T11:11:25.156Z,101106.48
2019-01-14T11:13:54.587Z,101106.53
2019-01-14T11:16:24.960Z,101104.45
2019-01-14T11:18:55.074Z,101108.55
2019-01-14T11:21:24.832Z,101103.16
2019-01-14T11:23:54.399Z,101109.42
2019-01-14T11:26:24.857Z,101109.33
2019-01-14T11:28:54.728Z,101118.55
2019-01-14T11:31:24.607Z,101115.66
2019-01-14T11:33:54.350Z,101114.16
2019-01-14T11:36:24.174Z,101112.86
2019-01-14T11:38:54.201Z,101125.70
2019-01-14T11:41:23.582Z,101120.81
2019-01-14T11:43:54.043Z,101118.52
2019-01-14T11:46:24.175Z,101125.81
2019-01-14T11:48:54.480Z,101125.16
2019-01-14T11:51:24.190Z,101126.38
2019-01-14T11:53:54.296Z,101130.85
2019-01-14T11:56:24.993Z,101132.42
2019-01-14T11:58:55.041Z,101138.20
2019-01-14T12:01:24.822Z,101136.47
2019-01-14T12:03:54.900Z,101131.81
2019-01-14T12:06:24.892Z,101133.13
2019-01-14T12:08:54.403Z,101130.64
2019-01-14T12:11:24.823Z,101136.00
2019-01-14T12:13:54.621Z,101135.58
2019-01-14T12:16:25.061Z,101144.08
2019-01-14T12:18:56.092Z,101148.34
2019-01-14T12:21:25.800Z,101150.41
2019-01-14T12:23:56.130Z,101149.80
2019-01-14T12:26:26.264Z,101144.66
2019-01-14T12:28:56.397Z,101142.71
2019-01-14T12:31:26.592Z,101152.17
2019-01-14T12:33:56.607Z,101155.47
2019-01-14T12:36:26.268Z,101156.33
2019-01-14T12:38:56.024Z,101162.70
2019-01-14T12:41:26.423Z,101164.84
2019-01-14T12:43:56.071Z,101160.38
2019-01-14T12:46:26.280Z,101163.76
2019-01-14T12:48:56.090Z,101171.38
2019-01-14T12:51:25.897Z,101168.74
2019-01-14T12:53:55.826Z,101175.97
2019-01-14T12:56:25.530Z,101185.78
2019-01-14T12:58:55.447Z,101183.84
2019-01-14T13:01:25.259Z,101190.23
2019-01-14T13:03:55.513Z,101194.54
2019-01-14T13:06:25.627Z,101194.58
2019-01-14T13:08:55.815Z,101194.71
2019-01-14T13:11:25.543Z,101203.52
2019-01-14T13:13:55.506Z,101205.01
2019-01-14T13:16:25.155Z,101205.31
2019-01-14T13:18:55.061Z,101198.00
2019-01-14T13:21:24.901Z,101201.63
2019-01-14T13:23:54.818Z,101208.52
2019-01-14T13:26:25.020Z,101206.75
2019-01-14T13:28:55.135Z,101218.77
2019-01-14T13:31:24.457Z,101221.41
2019-01-14T13:33:54.367Z,101225.28
2019-01-14T13:36:24.466Z,101224.53
2019-01-14T13:38:54.728Z,101229.79
2019-01-14T13:41:25.061Z,101230.28
2019-01-14T13:43:54.943Z,101229.09
2019-01-14T13:46:26.321Z,101237.96
2019-01-14T13:48:56.523Z,101238.69
2019-01-14T13:51:26.742Z,101242.05
2019-01-14T13:53:56.452Z,101245.43
2019-01-14T13:56:26.593Z,101246.27
2019-01-14T13:58:56.474Z,101252.16
2019-01-14T14:01:27.079Z,101249.29
2019-01-14T14:03:56.748Z,101251.18
2019-01-14T14:06:26.893Z,101256.22
2019-01-14T14:08:57.352Z,101256.94
2019-01-14T14:11:27.320Z,101257.06
2019-01-14T14:13:57.919Z,101267.94
2019-01-14T14:16:28.227Z,101271.42
2019-01-14T14:18:58.295Z,101266.98
2019-01-14T14:21:28.339Z,101275.48
2019-01-14T14:23:57.881Z,101273.08
2019-01-14T14:26:27.589Z,101278.34
2019-01-14T14:28:57.754Z,101275.23
2019-01-14T14:31:27.818Z,101273.91
2019-01-14T14:33:57.539Z,101274.16
2019-01-14T14:36:27.019Z,101272.22
2019-01-14T14:38:57.369Z,101279.64
2019-01-14T14:41:27.903Z,101280.84
2019-01-14T14:43:57.903Z,101284.07
2019-01-14T14:46:28.230Z,101279.88
2019-01-14T14:48:58.368Z,101282.84
2019-01-14T14:51:27.793Z,101281.27
2019-01-14T14:53:57.079Z,101284.50
2019-01-14T14:56:27.221Z,101283.59
2019-01-14T14:58:57.304Z,101286.27
2019-01-14T15:01:27.496Z,101277.06
2019-01-14T15:03:57.160Z,101282.91
2019-01-14T15:06:27.027Z,101283.52
2019-01-14T15:08:57.051Z,101293.67
2019-01-14T15:11:27.177Z,101290.18
2019-01-14T15:13:57.222Z,101294.34
2019-01-14T15:16:27.289Z,101292.05
2019-01-14T15:18:57.322Z,101291.88
2019-01-14T15:21:27.221Z,101292.71
2019-01-14T15:23:56.940Z,101293.24
2019-01-14T15:26:27.545Z,101294.29
2019-01-14T15:28:57.951Z,101295.55
2019-01-14T15:31:28.117Z,101294.17
2019-01-14T15:33:58.111Z,101299.16
2019-01-14T15:36:28.249Z,101301.14
2019-01-14T15:38:58.267Z,101294.17
2019-01-14T15:41:27.810Z,101294.66
2019-01-14T15:43:57.619Z,101296.65
2019-01-14T15:46:27.889Z,101297.09
2019-01-14T15:48:58.028Z,101301.98
2019-01-14T15:51:28.451Z,101304.89
2019-01-14T15:53:58.149Z,101297.61
2019-01-14T15:56:28.329Z,101296.25
2019-01-14T15:58:58.265Z,101299.13
2019-01-14T16:01:28.665Z,101301.03
2019-01-14T16:03:57.884Z,101293.19
2019-01-14T16:06:28.180Z,101298.67
2019-01-14T16:08:58.673Z,101306.75
2019-01-14T16:11:27.980Z,101306.44
2019-01-14T16:13:57.309Z,101308.70
2019-01-14T16:16:27.852Z,101303.41
2019-01-14T16:18:58.602Z,101303.45
2019-01-14T16:21:28.135Z,101308.59
2019-01-14T16:23:57.595Z,101307.28
2019-01-14T16:26:27.885Z,101309.38
2019-01-14T16:28:57.701Z,101301.93
2019-01-14T16:31:27.394Z,101305.34
2019-01-14T16:33:57.174Z,101307.83
2019-01-14T16:36:27.152Z,101308.14
2019-01-14T16:38:56.931Z,101308.25
2019-01-14T16:41:27.075Z,101304.79
2019-01-14T16:43:56.492Z,101307.14
2019-01-14T16:46:26.137Z,101304.27
2019-01-14T16:48:56.044Z,101309.16
2019-01-14T16:51:26.091Z,101308.11
2019-01-14T16:53:55.780Z,101307.63
2019-01-14T16:56:25.949Z,101306.85
2019-01-14T16:58:55.740Z,101299.99
2019-01-14T17:01:26.087Z,101297.95
2019-01-14T17:03:55.971Z,101296.72
2019-01-14T17:06:26.007Z,101297.25
2019-01-14T17:08:56.032Z,101288.38
2019-01-14T17:11:26.662Z,101291.00
2019-01-14T17:13:56.763Z,101284.19
2019-01-14T17:16:26.664Z,101276.78
2019-01-14T17:18:57.094Z,101276.14
2019-01-14T17:21:27.315Z,101266.06
2019-01-14T17:23:56.722Z,101267.13
2019-01-14T17:26:26.615Z,101262.10
2019-01-14T17:28:56.756Z,101262.35
2019-01-14T17:31:26.420Z,101256.63
2019-01-14T17:33:56.318Z,101254.06
2019-01-14T17:36:26.281Z,101259.73
2019-01-14T17:38:56.018Z,101253.53
2019-01-14T17:41:26.264Z,101257.47
2019-01-14T17:43:56.463Z,101256.75
2019-01-14T17:46:26.595Z,101255.08
2019-01-14T17:48:56.163Z,101249.90
2019-01-14T17:51:26.001Z,101255.85
2019-01-14T17:53:55.714Z,101262.95
2019-01-14T17:56:25.840Z,101252.28
2019-01-14T17:58:55.976Z,101250.97
2019-01-14T18:01:26.160Z,101249.30
2019-01-14T18:03:55.627Z,101253.42
2019-01-14T18:06:25.987Z,101246.98
2019-01-14T18:08:56.034Z,101252.45
2019-01-14T18:11:26.448Z,101251.80
2019-01-14T18:13:57.755Z,101249.30
2019-01-14T18:16:27.715Z,101256.57
2019-01-14T18:18:58.102Z,101260.36
2019-01-14T18:21:28.222Z,101259.89
2019-01-14T18:23:57.652Z,101261.09
2019-01-14T18:26:28.266Z,101252.87
2019-01-14T18:28:58.286Z,101250.55
2019-01-14T18:31:28.351Z,101253.65
2019-01-14T18:33:58.111Z,101248.45
2019-01-14T18:36:28.119Z,101253.34
2019-01-14T18:38:58.291Z,101249.41
2019-01-14T18:41:28.331Z,101251.20
2019-01-14T18:43:57.792Z,101248.18
2019-01-14T18:46:27.538Z,101245.89
2019-01-14T18:48:58.267Z,101249.55
2019-01-14T18:51:27.848Z,101254.79
2019-01-14T18:53:57.822Z,101248.23
2019-01-14T18:56:28.252Z,101250.66
2019-01-14T18:58:58.578Z,101245.19
2019-01-14T19:01:28.682Z,101243.41
2019-01-14T19:03:58.213Z,101244.94
2019-01-14T19:06:28.212Z,101248.59
2019-01-14T19:08:58.462Z,101239.75
2019-01-14T19:11:28.668Z,101245.08
2019-01-14T19:13:57.743Z,101241.73
2019-01-14T19:16:27.536Z,101243.05
2019-01-14T19:18:57.995Z,101245.19
2019-01-14T19:21:27.805Z,101250.55
2019-01-14T19:23:56.868Z,101249.83
2019-01-14T19:26:27.226Z,101249.91
2019-01-14T19:28:57.654Z,101246.92
2019-01-14T19:31:28.085Z,101236.42
2019-01-14T19:33:57.358Z,101241.42
2019-01-14T19:36:27.608Z,101242.48
2019-01-14T19:38:56.888Z,101249.23
2019-01-14T19:41:27.123Z,101249.06
2019-01-14T19:43:56.853Z,101253.22
2019-01-14T19:46:26.964Z,101249.51
2019-01-14T19:48:56.766Z,101240.96
2019-01-14T19:51:26.465Z,101240.90
2019-01-14T19:53:56.310Z,101244.83
2019-01-14T19:56:26.409Z,101244.22
2019-01-14T19:58:56.432Z,101243.09
2019-01-14T20:01:26.556Z,101235.53
2019-01-14T20:03:56.034Z,101237.78
2019-01-14T20:06:26.072Z,101243.72
2019-01-14T20:08:56.390Z,101240.96
2019-01-14T20:11:26.033Z,101246.39
2019-01-14T20:13:56.513Z,101247.26
2019-01-14T20:16:26.771Z,101247.77
2019-01-14T20:18:56.332Z,101246.27
2019-01-14T20:21:25.784Z,101245.91
2019-01-14T20:23:56.609Z,101240.56
2019-01-14T20:26:26.619Z,101246.05
2019-01-14T20:28:57.139Z,101239.61
2019-01-14T20:31:27.684Z,101240.16
2019-01-14T20:33:57.289Z,101236.84
2019-01-14T20:36:27.046Z,101232.91
2019-01-14T20:38:56.992Z,101229.03
2019-01-14T20:41:26.752Z,101224.38
2019-01-14T20:43:56.277Z,101223.59
2019-01-14T20:46:26.458Z,101228.52
2019-01-14T20:48:56.771Z,101227.78
2019-01-14T20:51:27.220Z,101220.96
2019-01-14T20:53:57.103Z,101216.03
2019-01-14T20:56:27.217Z,101213.52
2019-01-14T20:58:57.442Z,101214.53
2019-01-14T21:01:26.897Z,101217.89
2019-01-14T21:03:56.764Z,101215.20
2019-01-14T21:06:26.916Z,101211.01
2019-01-14T21:08:56.787Z,101200.97
2019-01-14T21:11:26.817Z,101203.11
2019-01-14T21:13:56.548Z,101202.42
2019-01-14T21:16:26.446Z,101200.74
2019-01-14T21:18:56.357Z,101204.31
2019-01-14T21:21:26.442Z,101211.80
2019-01-14T21:23:55.854Z,101209.19
2019-01-14T21:26:25.671Z,101211.23
2019-01-14T21:28:55.714Z,101218.58
2019-01-14T21:31:25.522Z,101220.61
2019-01-14T21:33:55.507Z,101226.70
2019-01-14T21:36:25.435Z,101219.74
2019-01-14T21:38:55.452Z,101209.41
2019-01-14T21:41:31.186Z,101219.09
2019-01-14T21:43:55.971Z,101214.36
2019-01-14T21:46:26.027Z,101214.02
2019-01-14T21:48:55.716Z,101220.33
2019-01-14T21:51:25.490Z,101220.84
2019-01-14T21:53:55.700Z,101224.30
2019-01-14T21:56:25.497Z,101229.16
2019-01-14T21:58:55.703Z,101228.23
2019-01-14T22:01:25.525Z,101230.10
2019-01-14T22:03:55.227Z,101232.55
2019-01-14T22:06:24.624Z,101231.39
2019-01-14T22:08:54.729Z,101237.66
2019-01-14T22:11:24.235Z,101236.54
2019-01-14T22:13:54.685Z,101232.50
2019-01-14T22:16:24.568Z,101233.34
2019-01-14T22:18:54.754Z,101235.96
2019-01-14T22:21:24.726Z,101233.69
2019-01-14T22:23:55.035Z,101235.29
2019-01-14T22:26:25.310Z,101242.48
2019-01-14T22:28:55.328Z,101238.95
2019-01-14T22:31:25.128Z,101244.76
2019-01-14T22:33:55.105Z,101237.62
2019-01-14T22:36:25.322Z,101240.63
2019-01-14T22:38:55.138Z,101245.49
2019-01-14T22:41:25.156Z,101243.52
2019-01-14T22:43:55.067Z,101248.91
2019-01-14T22:46:24.807Z,101249.05
2019-01-14T22:48:54.895Z,101249.17
2019-01-14T22:51:24.858Z,101253.48
2019-01-14T22:53:54.813Z,101255.27
2019-01-14T22:56:24.756Z,101251.05
2019-01-14T22:58:54.562Z,101258.15
2019-01-14T23:01:24.254Z,101261.22
2019-01-14T23:03:53.969Z,101262.44
2019-01-14T23:06:24.305Z,101254.11
2019-01-14T23:08:53.942Z,101256.16
2019-01-14T23:11:23.719Z,101259.61
2019-01-14T23:13:53.290Z,101260.27
2019-01-14T23:16:23.126Z,101270.75
2019-01-14T23:18:52.646Z,101271.22
2019-01-14T23:21:22.925Z,101265.70
2019-01-14T23:23:53.082Z,101269.42
2019-01-14T23:26:23.383Z,101271.59
2019-01-14T23:28:53.536Z,101274.98
2019-01-14T23:31:23.547Z,101268.50
2019-01-14T23:33:53.615Z,101280.77
2019-01-14T23:36:23.591Z,101277.59
2019-01-14T23:38:54.313Z,101272.45
2019-01-14T23:41:24.122Z,101277.86
2019-01-14T23:43:54.352Z,101276.44
2019-01-14T23:46:23.848Z,101276.36
2019-01-14T23:48:54.423Z,101272.97
2019-01-14T23:51:24.503Z,101283.66
2019-01-14T23:53:54.304Z,101290.70
2019-01-14T23:56:24.270Z,101301.42
2019-01-14T23:58:55.074Z,101309.65
